Time;durP1;ratioP1;P1;durP2;ratioP2;P2;SDS_P1;SDS_P2;PMS_P1;PMS_P2;Temp;Humidity;BMP_temperature;BMP_pressure;BME280_temperature;BME280_humidity;BME280_pressure;Samples;Min_cycle;Max_cycle;Signal;HPM_P1;HPM_P2
2022/01/09 00:00:01;;;;;;;18.73;12.65;;;;;;;9.18;56.73;100194.50;5056318;28;20052;-78
2022/01/09 00:02:57;;;;;;;41.22;22.70;;;;;;;9.18;56.26;100180.94;5064702;28;20049;-78
2022/01/09 00:05:42;;;;;;;40.88;20.40;;;;;;;9.23;56.92;100175.34;5077065;28;20424;-78
2022/01/09 00:08:27;;;;;;;42.85;22.80;;;;;;;9.20;55.72;100167.03;5074766;28;20460;-78
2022/01/09 00:11:13;;;;;;;32.92;18.13;;;;;;;9.20;57.09;100165.13;5087329;28;20059;-78
2022/01/09 00:13:58;;;;;;;34.88;20.48;;;;;;;9.10;53.25;100151.09;5075471;28;20036;-78
2022/01/09 00:16:42;;;;;;;33.07;19.00;;;;;;;9.06;54.07;100156.34;5074280;28;20041;-78
2022/01/09 00:19:28;;;;;;;30.75;19.17;;;;;;;9.08;53.27;100140.56;5070695;28;20295;-78
2022/01/09 00:22:14;;;;;;;27.33;16.52;;;;;;;8.92;51.12;100125.91;5081072;28;20404;-77
2022/01/09 00:24:59;;;;;;;25.42;15.93;;;;;;;9.00;50.15;100114.25;5073622;28;20044;-78
2022/01/09 00:27:43;;;;;;;17.77;10.83;;;;;;;8.96;51.51;100114.09;5074783;28;20059;-78
2022/01/09 00:30:28;;;;;;;33.72;19.05;;;;;;;8.82;52.44;100102.59;5068287;28;20047;-78
2022/01/09 00:33:13;;;;;;;24.50;14.02;;;;;;;8.80;51.01;100090.47;5072512;28;20040;-80
2022/01/09 00:35:58;;;;;;;21.10;13.52;;;;;;;8.87;50.92;100085.38;5074491;28;20040;-79
2022/01/09 00:38:43;;;;;;;19.08;12.88;;;;;;;8.87;51.02;100085.38;5076025;28;20049;-78
2022/01/09 00:41:28;;;;;;;16.95;10.38;;;;;;;8.81;54.13;100086.66;5075175;28;20049;-79
2022/01/09 00:44:12;;;;;;;17.50;10.95;;;;;;;8.77;53.33;100075.66;5077990;28;20048;-79
2022/01/09 00:47:00;;;;;;;19.98;11.70;;;;;;;8.74;52.55;100081.69;5077019;28;20421;-79
2022/01/09 00:49:44;;;;;;;21.85;14.45;;;;;;;8.76;52.38;100081.38;5074786;28;20539;-79
2022/01/09 00:52:29;;;;;;;23.65;14.77;;;;;;;8.80;54.75;100082.34;5065394;28;20040;-80
2022/01/09 00:55:14;;;;;;;11.57;7.22;;;;;;;9.03;60.61;100091.91;5076164;28;20045;-79
2022/01/09 00:57:59;;;;;;;10.77;6.45;;;;;;;9.25;64.33;100097.16;5073338;28;20059;-78
2022/01/09 01:00:44;;;;;;;7.95;5.22;;;;;;;9.40;66.32;100098.56;5060626;28;20067;-79
2022/01/09 01:03:29;;;;;;;;;;;;;;;9.55;68.18;100094.56;5077001;28;20044;-79
2022/01/09 01:06:13;;;;;;;10.98;6.43;;;;;;;9.58;68.78;100073.00;5074679;28;20392;-78
2022/01/09 01:08:58;;;;;;;16.50;10.13;;;;;;;9.49;66.48;100063.28;5072771;28;20568;-77
2022/01/09 01:11:43;;;;;;;19.83;11.77;;;;;;;9.31;59.27;100047.03;5076676;28;20052;-80
2022/01/09 01:14:29;;;;;;;14.90;10.73;;;;;;;9.17;53.98;100038.28;5073882;28;20281;-79
2022/01/09 01:17:14;;;;;;;21.27;13.50;;;;;;;9.20;50.76;100017.84;5073155;28;20045;-79
2022/01/09 01:19:58;;;;;;;17.40;10.07;;;;;;;9.23;51.68;100022.66;5076819;28;20045;-78
2022/01/09 01:22:43;;;;;;;17.63;9.23;;;;;;;9.03;52.80;100016.00;5074789;28;20047;-79
2022/01/09 01:25:28;;;;;;;15.87;9.47;;;;;;;9.04;52.85;100014.84;5072851;28;20047;-78
2022/01/09 01:28:13;;;;;;;16.05;10.80;;;;;;;9.03;57.58;100005.16;5073239;28;20651;-78
2022/01/09 01:30:58;;;;;;;19.25;10.48;;;;;;;9.12;59.96;100005.91;5074888;28;20436;-79
2022/01/09 01:33:42;;;;;;;17.83;10.25;;;;;;;9.13;60.35;100002.09;5072991;28;20055;-79
2022/01/09 01:36:27;;;;;;;18.35;11.60;;;;;;;9.06;58.41;100007.19;5075289;28;20044;-78
2022/01/09 01:39:12;;;;;;;16.63;9.73;;;;;;;9.17;59.17;99997.59;5078611;28;20443;-78
2022/01/09 01:41:57;;;;;;;10.35;7.53;;;;;;;9.19;60.93;99995.38;5073670;28;20515;-78
2022/01/09 01:44:44;;;;;;;15.88;9.57;;;;;;;9.32;62.90;99997.09;5077086;28;20523;-78
2022/01/09 01:47:29;;;;;;;25.05;14.38;;;;;;;9.39;65.34;99989.25;5074952;28;20044;-79
2022/01/09 01:50:14;;;;;;;14.30;7.65;;;;;;;9.37;65.37;99975.19;5072988;28;20066;-79
2022/01/09 01:52:59;;;;;;;;;;;;;;;9.36;63.39;99981.75;5077753;28;20043;-78
2022/01/09 01:55:44;;;;;;;15.98;10.50;;;;;;;9.32;62.94;99977.28;5075570;28;19912;-78
2022/01/09 01:58:34;;;;;;;11.80;6.88;;;;;;;9.50;66.19;99980.75;5071968;28;20047;-77
2022/01/09 02:01:19;;;;;;;10.73;6.85;;;;;;;9.63;69.18;99977.00;5076786;28;20075;-78
2022/01/09 02:04:05;;;;;;;8.35;4.40;;;;;;;9.69;70.10;99973.00;5074968;28;20047;-78
2022/01/09 02:06:50;;;;;;;14.18;8.82;;;;;;;9.74;69.72;99965.47;5073148;28;20071;-78
2022/01/09 02:09:36;;;;;;;22.42;13.65;;;;;;;9.47;60.89;99946.91;5077543;28;20512;-79
2022/01/09 02:12:20;;;;;;;15.32;9.68;;;;;;;9.37;53.54;99931.78;5074805;28;20512;-78
2022/01/09 02:15:29;;;;;;;21.17;11.75;;;;;;;9.30;58.09;99917.94;5073404;28;20039;-79
2022/01/09 02:18:20;;;;;;;19.17;12.15;;;;;;;9.21;53.71;99913.66;5072628;28;20534;-78
2022/01/09 02:21:05;;;;;;;18.20;11.50;;;;;;;9.19;52.47;99902.34;5073756;28;20044;-78
2022/01/09 02:23:49;;;;;;;20.52;11.20;;;;;;;9.08;52.25;99901.91;5072044;28;20056;-78
2022/01/09 02:26:34;;;;;;;19.63;12.32;;;;;;;9.03;50.52;99896.69;5082843;28;20048;-78
2022/01/09 02:29:19;;;;;;;16.27;9.60;;;;;;;8.95;51.57;99870.38;5081251;28;20055;-78
2022/01/09 02:32:05;;;;;;;11.32;7.60;;;;;;;8.99;56.65;99860.47;5078897;28;20048;-77
2022/01/09 02:34:50;;;;;;;16.70;10.27;;;;;;;9.03;55.33;99853.28;5082932;28;20052;-78
2022/01/09 02:37:35;;;;;;;27.02;13.73;;;;;;;8.96;54.82;99842.94;5078087;28;20051;-78
2022/01/09 02:40:22;;;;;;;16.55;10.40;;;;;;;8.96;55.63;99836.72;5079382;28;20123;-78
2022/01/09 02:43:07;;;;;;;21.48;12.50;;;;;;;8.96;56.19;99825.88;5082174;28;20044;-78
2022/01/09 02:46:16;;;;;;;14.52;8.88;;;;;;;8.99;58.20;99817.06;5081109;28;20056;-78
2022/01/09 02:49:05;;;;;;;20.13;12.90;;;;;;;8.98;53.96;99816.31;5078347;28;20048;-78
2022/01/09 02:51:49;;;;;;;19.55;12.40;;;;;;;8.95;53.83;99816.13;5081392;28;20056;-78
2022/01/09 02:57:42;;;;;;;18.15;11.05;;;;;;;8.90;58.87;99808.19;5080419;28;20051;-78
2022/01/09 03:00:37;;;;;;;18.73;12.70;;;;;;;8.88;51.48;99786.84;5081069;28;20046;-78
2022/01/09 03:03:21;;;;;;;17.88;11.70;;;;;;;8.78;49.41;99784.50;5078433;28;20051;-78
2022/01/09 03:06:08;;;;;;;13.32;9.23;;;;;;;8.69;50.01;99763.94;5082667;28;20651;-78
2022/01/09 03:08:54;;;;;;;18.67;11.85;;;;;;;8.55;50.89;99775.03;5080708;28;20052;-77
2022/01/09 03:11:40;;;;;;;28.45;15.02;;;;;;;8.45;52.89;99769.94;5078109;28;20059;-78
2022/01/09 03:14:25;;;;;;;11.13;8.18;;;;;;;8.67;60.39;99766.22;5081658;28;20048;-79
2022/01/09 03:17:09;;;;;;;8.68;5.75;;;;;;;8.87;65.21;99770.91;5080658;28;20512;-77
2022/01/09 03:19:54;;;;;;;11.65;6.20;;;;;;;9.01;66.18;99760.59;5078762;28;20051;-77
2022/01/09 03:22:39;;;;;;;12.18;7.70;;;;;;;9.05;66.71;99744.47;5082986;28;20047;-77
2022/01/09 03:25:25;;;;;;;;;;;;;;;9.01;63.10;99737.00;5081135;28;20052;-78
2022/01/09 03:28:10;;;;;;;10.85;4.88;;;;;;;9.08;66.13;99739.22;5078716;28;19916;-77
2022/01/09 03:30:55;;;;;;;9.57;5.13;;;;;;;9.21;68.79;99734.63;5083087;28;20048;-77
2022/01/09 03:33:40;;;;;;;9.52;5.40;;;;;;;9.20;68.90;99731.13;5080669;28;20444;-77
2022/01/09 03:36:24;;;;;;;9.52;6.40;;;;;;;9.22;69.58;99730.81;5076943;28;20401;-77
2022/01/09 03:39:10;;;;;;;11.10;6.65;;;;;;;9.25;70.07;99732.84;5074282;28;20052;-77
2022/01/09 03:41:57;;;;;;;7.00;4.68;;;;;;;9.28;70.74;99724.06;5077993;28;20051;-79
2022/01/09 03:44:41;;;;;;;12.45;7.30;;;;;;;9.33;70.31;99723.88;5075613;28;20059;-78
2022/01/09 03:47:26;;;;;;;6.38;4.20;;;;;;;9.37;71.07;99730.22;5074043;28;20051;-79
2022/01/09 03:50:14;;;;;;;9.95;6.00;;;;;;;9.42;72.28;99722.66;5078362;28;20051;-77
2022/01/09 03:52:59;;;;;;;15.48;8.60;;;;;;;9.34;70.11;99720.84;5075673;28;20043;-78
2022/01/09 03:55:43;;;;;;;8.77;5.90;;;;;;;9.31;68.29;99726.91;5074221;28;20044;-78
2022/01/09 03:58:28;;;;;;;8.73;5.85;;;;;;;9.35;68.82;99725.13;5074269;28;20048;-78
2022/01/09 04:01:13;;;;;;;13.15;8.32;;;;;;;9.30;67.00;99722.59;5076017;28;20052;-78
2022/01/09 04:03:58;;;;;;;13.40;7.82;;;;;;;9.25;64.83;99730.94;5079269;28;20051;-78
2022/01/09 04:06:46;;;;;;;11.00;6.78;;;;;;;9.22;63.97;99725.38;5078060;28;20047;-77
2022/01/09 04:09:39;;;;;;;14.77;8.45;;;;;;;9.14;63.15;99718.91;5076266;28;20078;-78
2022/01/09 04:12:34;;;;;;;10.90;7.53;;;;;;;9.08;62.16;99700.44;5073409;28;20039;-78
2022/01/09 04:15:18;;;;;;;13.30;9.02;;;;;;;9.15;63.17;99700.69;5077100;28;20047;-78
2022/01/09 04:18:03;;;;;;;12.15;6.50;;;;;;;9.07;59.33;99694.22;5075036;28;20059;-78
2022/01/09 04:20:49;;;;;;;8.80;6.10;;;;;;;9.14;60.63;99699.94;5073646;28;20520;-78
2022/01/09 04:23:34;;;;;;;11.70;7.28;;;;;;;9.16;62.23;99689.53;5076657;28;20048;-78
2022/01/09 04:26:20;;;;;;;13.67;8.83;;;;;;;9.06;61.41;99689.91;5075201;28;20052;-77
2022/01/09 04:29:05;;;;;;;10.70;7.53;;;;;;;9.03;61.19;99685.16;5073549;28;20274;-78
2022/01/09 04:31:50;;;;;;;;;;;;;;;9.11;63.77;99687.00;5077735;28;20048;-77
2022/01/09 04:34:34;;;;;;;11.93;6.82;;;;;;;9.09;63.54;99683.84;5074940;28;19913;-78
2022/01/09 04:37:19;;;;;;;9.80;5.70;;;;;;;9.10;64.29;99690.84;5073451;28;20059;-77
2022/01/09 04:40:06;;;;;;;10.70;6.50;;;;;;;9.05;64.71;99696.47;5077359;28;20116;-79
2022/01/09 04:42:58;;;;;;;14.18;7.90;;;;;;;9.05;61.07;99693.75;5075407;28;20051;-78
2022/01/09 04:45:43;;;;;;;9.82;7.30;;;;;;;9.09;62.35;99697.41;5053326;28;20064;-77
2022/01/09 04:48:27;;;;;;;8.05;5.50;;;;;;;9.05;62.73;99698.38;5053299;28;20047;-77
2022/01/09 04:51:14;;;;;;;8.50;5.32;;;;;;;9.00;62.22;99694.75;5055444;28;20429;-78
2022/01/09 04:53:59;;;;;;;11.63;7.72;;;;;;;8.97;61.02;99686.47;5057247;28;20055;-78
2022/01/09 04:56:44;;;;;;;15.27;8.70;;;;;;;8.86;58.02;99694.19;5077003;28;20051;-77
2022/01/09 04:59:29;;;;;;;8.95;5.47;;;;;;;8.89;61.80;99690.81;5075230;28;20405;-77
2022/01/09 05:02:14;;;;;;;6.68;4.63;;;;;;;8.95;63.25;99704.97;5073035;28;20049;-77
2022/01/09 05:04:59;;;;;;;5.72;4.32;;;;;;;8.93;66.08;99701.81;5076632;28;20072;-77
2022/01/09 05:07:45;;;;;;;;;;;;;;;9.01;65.73;99706.38;5075413;28;20409;-77
2022/01/09 05:10:30;;;;;;;6.95;4.68;;;;;;;9.00;66.02;99699.38;5073593;28;19917;-77
2022/01/09 05:13:15;;;;;;;9.90;6.78;;;;;;;8.83;60.89;99691.34;5077164;28;20405;-78
2022/01/09 05:16:00;;;;;;;13.67;5.90;;;;;;;9.02;65.55;99697.13;5074998;28;20060;-77
2022/01/09 05:18:58;;;;;;;7.78;5.07;;;;;;;9.08;68.22;99693.09;5073234;28;20782;-78
2022/01/09 05:21:42;;;;;;;7.47;5.45;;;;;;;9.07;68.88;99696.94;5076726;28;20524;-77
2022/01/09 05:24:28;;;;;;;10.82;4.78;;;;;;;9.09;69.59;99691.19;5074615;28;20051;-77
2022/01/09 05:27:12;;;;;;;6.85;4.60;;;;;;;8.95;67.78;99691.44;5052695;28;20056;-78
2022/01/09 05:29:57;;;;;;;8.68;5.55;;;;;;;8.95;68.41;99699.56;5057120;28;20071;-78
2022/01/09 05:32:42;;;;;;;6.13;4.43;;;;;;;9.03;68.81;99690.59;5061059;28;20051;-78
2022/01/09 05:35:27;;;;;;;9.85;6.22;;;;;;;8.98;66.99;99696.22;5065341;28;20044;-78
2022/01/09 05:38:12;;;;;;;7.85;5.22;;;;;;;8.96;63.59;99698.44;5064387;28;20051;-77
2022/01/09 05:40:57;;;;;;;8.13;6.18;;;;;;;8.98;65.70;99691.59;5066312;28;20519;-78
2022/01/09 05:43:42;;;;;;;6.65;4.72;;;;;;;9.10;69.34;99688.13;5073017;28;20051;-79
2022/01/09 05:46:27;;;;;;;9.38;6.65;;;;;;;9.08;65.16;99700.44;5060677;28;20055;-78
2022/01/09 05:49:13;;;;;;;11.38;8.13;;;;;;;9.03;62.12;99706.84;5065619;28;20067;-78
2022/01/09 05:51:58;;;;;;;15.40;8.50;;;;;;;9.01;62.74;99706.38;5072164;28;20047;-76
2022/01/09 05:54:43;;;;;;;8.10;6.40;;;;;;;8.99;61.98;99708.63;5077368;28;20043;-78
2022/01/09 05:57:27;;;;;;;12.30;7.78;;;;;;;9.06;63.31;99717.03;5074218;28;20409;-78
2022/01/09 06:00:12;;;;;;;14.97;8.80;;;;;;;9.06;62.46;99718.94;5072717;28;20051;-77
2022/01/09 06:03:03;;;;;;;9.15;6.53;;;;;;;9.05;63.22;99725.50;5071074;28;20286;-77
2022/01/09 06:05:47;;;;;;;8.93;5.50;;;;;;;9.11;65.51;99716.84;5074452;28;20508;-78
2022/01/09 06:08:32;;;;;;;6.25;3.90;;;;;;;9.20;68.61;99728.41;5062898;28;20424;-77
2022/01/09 06:11:17;;;;;;;11.15;6.97;;;;;;;9.12;66.49;99729.28;5073892;28;20488;-77
2022/01/09 06:14:03;;;;;;;8.38;5.85;;;;;;;9.19;68.09;99729.56;5074558;28;20056;-76
2022/01/09 06:16:47;;;;;;;9.38;5.65;;;;;;;9.21;68.42;99737.34;5072490;28;20094;-77
2022/01/09 06:19:32;;;;;;;5.03;3.65;;;;;;;9.21;67.54;99731.94;5064225;28;20051;-77
2022/01/09 06:22:18;;;;;;;5.93;3.95;;;;;;;9.26;69.64;99739.88;5075217;28;20051;-77
2022/01/09 06:25:04;;;;;;;7.40;4.80;;;;;;;9.30;70.33;99754.34;5073458;28;20047;-76
2022/01/09 06:27:49;;;;;;;7.65;5.38;;;;;;;9.31;71.08;99754.03;5070783;28;20051;-76
2022/01/09 06:30:34;;;;;;;9.75;6.07;;;;;;;9.21;68.25;99749.00;5075599;28;20405;-77
2022/01/09 06:33:19;;;;;;;6.88;4.97;;;;;;;9.16;68.18;99732.91;5073236;28;20425;-76
2022/01/09 06:36:04;;;;;;;10.02;7.38;;;;;;;9.11;64.47;99733.09;5072745;28;20528;-77
2022/01/09 06:38:49;;;;;;;10.98;6.22;;;;;;;9.04;62.09;99727.41;5076522;28;20817;-76
2022/01/09 06:41:33;;;;;;;11.57;5.90;;;;;;;8.93;59.70;99715.38;5074868;28;20051;-77
2022/01/09 06:44:18;;;;;;;9.02;6.63;;;;;;;8.55;57.93;99694.53;5064457;28;20051;-77
2022/01/09 06:47:04;;;;;;;12.38;6.32;;;;;;;8.40;60.13;99686.16;5071372;28;20119;-77
2022/01/09 06:49:49;;;;;;;8.88;5.72;;;;;;;8.32;61.79;99670.75;5071708;28;20115;-77
2022/01/09 06:52:33;;;;;;;9.98;5.20;;;;;;;8.52;64.87;99667.31;5066374;28;20044;-76
2022/01/09 06:55:18;;;;;;;11.98;7.22;;;;;;;8.76;66.58;99688.34;5070670;28;20044;-77
2022/01/09 06:58:03;;;;;;;9.32;6.05;;;;;;;8.86;65.48;99696.13;5072153;28;20044;-77
2022/01/09 07:00:48;;;;;;;;;;;;;;;8.94;67.78;99692.53;5071235;28;20048;-76
2022/01/09 07:03:33;;;;;;;19.67;9.73;;;;;;;8.94;68.66;99695.25;5069681;28;19912;-76
2022/01/09 07:06:18;;;;;;;11.57;7.10;;;;;;;8.99;69.68;99693.13;5070095;28;20040;-77
2022/01/09 07:09:04;;;;;;;8.48;5.65;;;;;;;8.92;68.86;99698.31;5074849;28;20525;-77
2022/01/09 07:11:49;;;;;;;13.25;6.95;;;;;;;8.87;67.12;99676.03;5074370;28;20043;-77
2022/01/09 07:14:35;;;;;;;12.70;6.70;;;;;;;8.90;65.71;99678.06;5075431;28;20047;-77
2022/01/09 07:17:19;;;;;;;9.40;7.20;;;;;;;8.91;65.10;99663.38;5078301;28;20519;-76
2022/01/09 07:20:05;;;;;;;9.95;6.05;;;;;;;8.90;63.60;99672.63;5077122;28;20071;-76
2022/01/09 07:22:50;;;;;;;14.50;7.88;;;;;;;8.88;62.42;99666.78;5075738;28;20056;-76
2022/01/09 07:25:35;;;;;;;36.38;16.95;;;;;;;8.81;60.10;99666.47;5079529;28;20044;-77
2022/01/09 07:28:20;;;;;;;35.15;14.95;;;;;;;6.92;50.77;99642.63;5076019;28;20048;-77
2022/01/09 07:31:04;;;;;;;14.32;7.95;;;;;;;6.21;49.94;99631.22;5075284;28;20051;-76
2022/01/09 07:33:49;;;;;;;18.67;9.90;;;;;;;4.65;51.65;99631.28;5079568;28;20067;-77
2022/01/09 07:36:33;;;;;;;18.90;9.07;;;;;;;4.53;55.82;99645.25;5077214;28;20060;-76
2022/01/09 07:39:19;;;;;;;18.52;11.02;;;;;;;4.55;55.49;99658.44;5075603;28;20052;-76
2022/01/09 07:42:05;;;;;;;26.15;15.07;;;;;;;4.14;57.10;99659.25;5074018;28;20548;-76
2022/01/09 07:44:51;;;;;;;21.58;11.52;;;;;;;3.90;57.74;99661.31;5077562;28;20051;-76
2022/01/09 07:47:36;;;;;;;17.35;9.65;;;;;;;3.61;58.85;99647.28;5075895;28;20421;-76
2022/01/09 07:50:22;;;;;;;12.80;7.35;;;;;;;3.65;59.23;99657.19;5073693;28;20432;-76
2022/01/09 07:53:07;;;;;;;17.10;10.00;;;;;;;3.79;57.79;99649.94;5077479;28;20063;-76
2022/01/09 07:55:52;;;;;;;15.35;8.40;;;;;;;3.73;58.48;99653.00;5080695;28;20052;-76
2022/01/09 07:58:37;;;;;;;20.65;11.00;;;;;;;3.73;57.77;99644.94;5073732;28;20051;-76
2022/01/09 08:01:22;;;;;;;13.30;8.40;;;;;;;3.28;59.15;99641.94;5077706;28;20532;-76
2022/01/09 08:04:07;;;;;;;12.02;7.07;;;;;;;3.36;59.41;99653.91;5075874;28;20048;-76
2022/01/09 08:06:52;;;;;;;14.70;7.47;;;;;;;3.59;59.00;99652.19;5073418;28;20051;-76
2022/01/09 08:09:36;;;;;;;14.00;8.30;;;;;;;3.58;58.15;99655.97;5078325;28;20048;-76
2022/01/09 08:12:21;;;;;;;18.90;9.98;;;;;;;3.74;57.02;99641.16;5076277;28;20428;-77
2022/01/09 08:15:06;;;;;;;11.75;7.13;;;;;;;3.64;57.06;99635.97;5064768;28;20429;-76
2022/01/09 08:17:53;;;;;;;14.15;7.97;;;;;;;3.49;57.04;99636.25;5067979;28;20059;-75
2022/01/09 08:20:37;;;;;;;16.35;9.48;;;;;;;3.65;57.01;99637.56;5067934;28;20047;-76
2022/01/09 08:23:23;;;;;;;10.80;7.22;;;;;;;3.24;59.73;99646.31;5072370;28;20052;-76
2022/01/09 08:26:08;;;;;;;11.98;7.43;;;;;;;3.19;60.63;99627.59;5079455;28;20409;-76
2022/01/09 08:28:54;;;;;;;17.17;9.27;;;;;;;3.01;59.61;99637.25;5076043;28;20059;-76
2022/01/09 08:31:39;;;;;;;15.13;10.02;;;;;;;3.25;58.45;99641.75;5073038;28;20052;-76
2022/01/09 08:34:23;;;;;;;16.58;9.65;;;;;;;3.18;59.03;99647.47;5074086;28;20039;-76
2022/01/09 08:37:11;;;;;;;13.27;7.40;;;;;;;3.27;59.38;99645.72;5074182;28;20052;-76
2022/01/09 08:39:56;;;;;;;15.25;8.95;;;;;;;3.32;59.48;99653.69;5073205;28;20417;-76
2022/01/09 08:42:41;;;;;;;16.38;7.60;;;;;;;3.27;59.86;99655.66;5077197;28;20056;-76
2022/01/09 08:45:26;;;;;;;11.85;7.10;;;;;;;3.05;60.18;99666.22;5073806;28;20047;-75
2022/01/09 08:48:11;;;;;;;11.45;7.00;;;;;;;3.34;60.71;99667.66;5070606;28;20232;-76
2022/01/09 08:50:56;;;;;;;12.77;7.65;;;;;;;3.55;59.10;99678.06;5074328;28;20052;-76
2022/01/09 08:53:41;;;;;;;11.47;7.47;;;;;;;3.79;58.65;99678.72;5074784;28;20059;-76
2022/01/09 08:56:28;;;;;;;17.45;9.52;;;;;;;3.93;59.71;99679.53;5068892;28;20043;-76
2022/01/09 08:59:12;;;;;;;31.17;10.85;;;;;;;3.65;58.08;99676.00;5067182;28;20409;-76
2022/01/09 09:01:57;;;;;;;22.08;14.65;;;;;;;3.89;58.20;99681.22;5077005;28;20047;-76
2022/01/09 09:04:42;;;;;;;22.98;13.48;;;;;;;4.16;57.30;99675.09;5069370;28;20452;-76
2022/01/09 09:07:27;;;;;;;14.32;9.93;;;;;;;4.24;57.36;99685.94;5068953;28;20044;-76
2022/01/09 09:10:13;;;;;;;14.70;9.15;;;;;;;4.43;56.28;99690.44;5066046;28;20052;-77
2022/01/09 09:12:57;;;;;;;16.13;9.50;;;;;;;4.63;55.67;99688.13;5071618;28;20059;-76
2022/01/09 09:15:42;;;;;;;16.37;10.13;;;;;;;4.40;55.72;99704.50;5072504;28;20407;-76
2022/01/09 09:18:26;;;;;;;16.93;9.37;;;;;;;4.29;57.64;99696.63;5078578;28;20785;-76
2022/01/09 09:21:11;;;;;;;15.35;9.55;;;;;;;4.17;57.49;99696.28;5081578;28;20047;-76
2022/01/09 09:23:56;;;;;;;14.80;8.70;;;;;;;3.82;59.14;99702.31;5069367;28;20043;-78
2022/01/09 09:26:41;;;;;;;17.90;9.07;;;;;;;4.12;59.14;99696.41;5067102;28;20052;-76
2022/01/09 09:29:26;;;;;;;24.05;16.77;;;;;;;4.29;57.86;99693.13;5069460;28;20158;-76
2022/01/09 09:32:13;;;;;;;21.60;10.50;;;;;;;4.23;58.07;99684.34;5057747;28;20531;-76
2022/01/09 09:34:58;;;;;;;23.00;15.60;;;;;;;4.28;58.28;99681.56;5072592;28;20044;-77
2022/01/09 09:37:43;;;;;;;17.23;11.38;;;;;;;4.38;58.59;99696.72;5073769;28;20527;-76
2022/01/09 09:40:28;;;;;;;16.42;11.68;;;;;;;4.32;58.97;99686.38;5069120;28;20425;-78
2022/01/09 09:43:13;;;;;;;21.30;13.13;;;;;;;4.37;59.22;99688.97;5071288;28;20051;-80
2022/01/09 09:45:58;;;;;;;27.17;16.42;;;;;;;4.36;59.40;99690.06;5074737;28;20063;-77
2022/01/09 09:48:44;;;;;;;33.40;19.10;;;;;;;4.50;59.93;99694.31;5060461;28;20513;-77
2022/01/09 09:51:29;;;;;;;25.10;16.10;;;;;;;4.70;60.75;99709.28;5065683;28;20048;-76
2022/01/09 09:54:13;;;;;;;24.25;13.18;;;;;;;4.50;60.94;99701.59;5073662;28;20047;-76
2022/01/09 09:56:58;;;;;;;20.03;12.87;;;;;;;4.25;62.32;99702.91;5070807;28;20055;-76
2022/01/09 09:59:43;;;;;;;23.42;13.45;;;;;;;4.25;62.59;99692.94;5072766;28;20290;-77
2022/01/09 10:02:40;;;;;;;19.57;11.53;;;;;;;4.56;61.51;99697.72;5077075;28;20169;-77
2022/01/09 10:05:35;;;;;;;23.20;16.13;;;;;;;4.34;62.31;99692.22;5074384;28;20063;-77
2022/01/09 10:08:20;;;;;;;24.92;17.15;;;;;;;4.25;62.41;99697.50;5072049;28;20067;-77
2022/01/09 10:11:18;;;;;;;19.70;13.18;;;;;;;4.39;62.43;99692.13;5076962;28;20044;-77
2022/01/09 10:14:15;;;;;;;25.10;16.38;;;;;;;4.44;62.23;99697.41;5073810;28;20051;-77
2022/01/09 10:17:19;;;;;;;26.45;16.80;;;;;;;4.84;61.67;99701.97;5071109;28;20616;-77
2022/01/09 10:20:12;;;;;;;28.10;16.42;;;;;;;4.93;61.32;99708.22;5074569;28;20417;-76
2022/01/09 10:22:56;;;;;;;29.17;19.58;;;;;;;4.73;61.44;99705.97;5071622;28;20641;-77
2022/01/09 10:25:41;;;;;;;25.67;14.30;;;;;;;4.61;61.70;99705.69;5075900;28;20421;-76
2022/01/09 10:28:36;;;;;;;19.55;13.38;;;;;;;4.64;62.52;99699.69;5071282;28;20424;-76
2022/01/09 10:31:22;;;;;;;25.30;15.57;;;;;;;4.53;63.42;99709.06;5071482;28;20048;-76
2022/01/09 10:34:10;;;;;;;26.70;18.27;;;;;;;4.57;63.91;99707.41;5073598;28;20052;-79
2022/01/09 10:36:55;;;;;;;35.40;21.70;;;;;;;4.61;64.30;99697.63;5073328;28;20129;-77
2022/01/09 10:39:40;;;;;;;31.05;18.50;;;;;;;4.38;64.19;99701.28;5068562;28;20056;-77
2022/01/09 10:42:27;;;;;;;36.55;20.60;;;;;;;4.10;64.91;99703.19;5072076;28;20044;-77
2022/01/09 10:45:40;;;;;;;39.10;23.70;;;;;;;3.93;65.98;99701.06;5071818;28;20047;-76
2022/01/09 10:48:26;;;;;;;38.53;24.38;;;;;;;3.68;67.01;99707.66;5075165;28;20047;-77
2022/01/09 10:51:13;;;;;;;43.95;25.48;;;;;;;3.40;67.54;99684.50;5064739;28;20044;-77
2022/01/09 10:53:58;;;;;;;44.75;25.73;;;;;;;3.55;68.53;99694.19;5071353;28;20051;-77
2022/01/09 10:56:43;;;;;;;42.33;22.58;;;;;;;3.48;68.92;99699.94;5080017;28;20413;-77
2022/01/09 10:59:31;;;;;;;34.30;21.10;;;;;;;3.72;68.19;99697.13;5078719;28;20412;-77
2022/01/09 11:02:18;;;;;;;42.85;27.25;;;;;;;3.63;68.51;99698.88;5076655;28;20636;-77
2022/01/09 11:05:03;;;;;;;48.10;26.95;;;;;;;3.82;68.01;99699.63;5080969;28;20141;-77
2022/01/09 11:07:50;;;;;;;;;;;;;;;3.87;68.13;99704.91;5078362;28;20527;-78
2022/01/09 11:10:35;;;;;;;40.40;25.25;;;;;;;3.78;68.00;99710.19;5077097;28;19912;-78
2022/01/09 11:13:23;;;;;;;54.42;26.90;;;;;;;3.94;67.20;99709.91;5079903;28;20631;-78
2022/01/09 11:19:20;;;;;;;49.78;28.23;;;;;;;4.11;66.11;99710.16;5079226;28;20047;-77
2022/01/09 11:22:08;;;;;;;45.00;27.02;;;;;;;3.96;66.80;99716.63;5086796;28;20075;-79
2022/01/09 11:25:10;;;;;;;47.03;26.27;;;;;;;4.16;67.09;99713.56;5076144;28;20116;-79
2022/01/09 11:28:07;;;;;;;41.05;25.83;;;;;;;4.26;66.40;99708.00;5071090;28;20059;-79
2022/01/09 11:31:11;;;;;;;51.72;26.98;;;;;;;3.96;67.31;99710.44;5073588;28;20416;-79
2022/01/09 11:34:21;;;;;;;45.55;27.38;;;;;;;4.11;65.95;99712.84;5067586;28;20047;-78
2022/01/09 11:37:36;;;;;;;38.47;24.05;;;;;;;4.20;65.76;99714.56;5081403;28;20055;-75
2022/01/09 11:40:21;;;;;;;31.75;20.33;;;;;;;4.04;66.47;99705.16;5072379;28;20121;-76
2022/01/09 11:43:14;;;;;;;32.70;20.25;;;;;;;4.17;66.09;99699.00;5074020;28;20051;-76
2022/01/09 11:46:01;;;;;;;40.58;24.95;;;;;;;4.20;65.80;99694.91;5065895;28;20158;-78
2022/01/09 11:48:52;;;;;;;43.00;26.00;;;;;;;4.16;66.00;99683.97;5076608;28;20052;-76
2022/01/09 11:51:36;;;;;;;42.92;25.38;;;;;;;4.03;66.50;99687.41;5068493;28;20056;-81
2022/01/09 11:54:23;;;;;;;32.67;20.98;;;;;;;4.32;65.75;99691.75;5066824;28;20059;-78
2022/01/09 11:57:10;;;;;;;44.60;27.30;;;;;;;4.34;65.31;99684.16;5081547;28;20523;-77
2022/01/09 11:59:55;;;;;;;41.65;24.92;;;;;;;4.18;66.29;99676.38;5075349;28;20035;-77
2022/01/09 12:02:40;;;;;;;47.72;27.15;;;;;;;4.19;66.73;99680.66;5076892;28;20074;-76
2022/01/09 12:05:25;;;;;;;30.80;20.10;;;;;;;4.08;67.01;99679.25;5083135;28;20047;-77
2022/01/09 12:08:10;;;;;;;43.03;26.52;;;;;;;4.19;66.76;99674.50;5080360;28;20048;-75
2022/01/09 12:10:56;;;;;;;38.22;23.48;;;;;;;4.11;67.16;99669.81;5064729;28;20443;-75
2022/01/09 12:13:42;;;;;;;44.35;27.27;;;;;;;4.30;67.27;99660.53;5078673;28;20055;-75
2022/01/09 12:16:48;;;;;;;51.17;27.15;;;;;;;4.64;66.26;99640.47;5076992;28;20048;-75
2022/01/09 12:20:23;;;;;;;35.30;21.60;;;;;;;4.50;66.46;99634.31;5074445;28;20059;-76
2022/01/09 12:23:20;;;;;;;44.67;26.70;;;;;;;4.73;66.03;99634.06;5075585;28;20052;-76
2022/01/09 12:26:24;;;;;;;52.13;28.45;;;;;;;4.75;65.81;99628.38;5073116;28;20405;-76
2022/01/09 12:29:10;;;;;;;50.05;27.92;;;;;;;4.97;65.08;99628.41;5064106;28;20047;-76
2022/01/09 12:31:54;;;;;;;44.03;23.73;;;;;;;5.18;64.77;99631.44;5064041;28;20047;-75
2022/01/09 12:34:39;;;;;;;43.55;24.80;;;;;;;5.24;64.79;99621.31;5060406;28;20068;-76
2022/01/09 12:37:24;;;;;;;41.45;24.05;;;;;;;5.35;64.30;99628.06;5059939;28;20537;-75
2022/01/09 12:40:10;;;;;;;40.05;23.27;;;;;;;5.37;63.99;99615.06;5069690;28;20107;-76
2022/01/09 12:42:58;;;;;;;43.78;26.10;;;;;;;5.30;63.16;99614.69;5076778;28;20110;-75
2022/01/09 12:45:44;;;;;;;52.25;28.55;;;;;;;5.31;63.28;99610.91;5076748;28;20056;-77
2022/01/09 12:48:30;;;;;;;48.78;27.13;;;;;;;5.36;62.67;99598.09;5056762;28;20107;-76
2022/01/09 12:51:15;;;;;;;51.42;27.63;;;;;;;5.18;63.89;99601.00;5069404;28;20059;-76
2022/01/09 12:54:06;;;;;;;41.20;22.30;;;;;;;5.23;63.64;99598.19;5075930;28;20052;-75
2022/01/09 12:56:51;;;;;;;45.03;25.98;;;;;;;5.23;63.79;99592.78;5074651;28;20051;-75
2022/01/09 12:59:36;;;;;;;37.25;21.85;;;;;;;5.32;63.97;99596.34;5073681;28;20038;-76
2022/01/09 13:02:21;;;;;;;36.47;22.42;;;;;;;5.35;64.08;99593.00;5075853;28;20067;-75
2022/01/09 13:05:06;;;;;;;33.40;21.45;;;;;;;5.44;63.47;99599.25;5073505;28;20040;-75
2022/01/09 13:07:59;;;;;;;41.75;22.52;;;;;;;5.42;64.18;99593.38;5075995;28;20066;-76